createdAt,value
2023-04-25T00:02:20.661Z,3.03
2023-04-25T00:04:50.558Z,2.50
2023-04-25T00:07:19.334Z,2.00
2023-04-25T00:09:47.854Z,2.03
2023-04-25T00:12:16.666Z,1.70
2023-04-25T00:14:46.465Z,2.80
2023-04-25T00:17:14.970Z,2.03
2023-04-25T00:19:45.660Z,2.43
2023-04-25T00:22:14.267Z,3.40
2023-04-25T00:24:42.789Z,1.87
2023-04-25T00:27:11.325Z,1.77
2023-04-25T00:29:39.867Z,1.63
2023-04-25T00:32:08.451Z,1.40
2023-04-25T00:34:37.021Z,1.60
2023-04-25T00:37:07.019Z,1.80
2023-04-25T00:39:35.625Z,2.20
2023-04-25T00:42:04.157Z,1.67
2023-04-25T00:44:33.123Z,1.80
2023-04-25T00:47:01.849Z,2.10
2023-04-25T00:49:30.537Z,2.10
2023-04-25T00:52:00.053Z,1.40
2023-04-25T00:54:31.059Z,2.43
2023-04-25T00:56:59.599Z,2.57
2023-04-25T00:59:28.249Z,2.03
2023-04-25T01:01:56.922Z,2.03
2023-04-25T01:04:25.588Z,2.20
2023-04-25T01:06:54.219Z,2.27
2023-04-25T01:09:23.529Z,2.50
2023-04-25T01:11:53.490Z,1.77
2023-04-25T01:14:22.094Z,2.17
2023-04-25T01:16:50.692Z,2.80
2023-04-25T01:19:20.158Z,2.83
2023-04-25T01:21:50.150Z,2.47
2023-04-25T01:24:18.836Z,2.57
2023-04-25T01:26:50.835Z,3.47
2023-04-25T01:29:19.595Z,2.57
2023-04-25T01:31:49.032Z,2.60
2023-04-25T01:34:17.618Z,2.83
2023-04-25T01:36:46.213Z,2.70
2023-04-25T01:39:16.380Z,3.27
2023-04-25T01:41:44.967Z,2.77
2023-04-25T01:44:13.546Z,2.17
2023-04-25T01:46:42.241Z,2.97
2023-04-25T01:49:10.809Z,2.57
2023-04-25T01:51:39.376Z,2.27
2023-04-25T01:54:08.335Z,3.07
2023-04-25T01:56:39.394Z,2.50
2023-04-25T01:59:07.945Z,2.73
2023-04-25T02:01:36.574Z,2.07
2023-04-25T02:04:05.486Z,2.60
2023-04-25T02:06:34.259Z,2.30
2023-04-25T02:09:04.054Z,2.33
2023-04-25T02:11:32.650Z,2.80
2023-04-25T02:14:02.630Z,2.60
2023-04-25T02:16:31.700Z,2.27
2023-04-25T02:19:01.147Z,2.63
2023-04-25T02:21:30.198Z,2.93
2023-04-25T02:23:58.834Z,2.80
2023-04-25T02:26:27.760Z,3.17
2023-04-25T02:28:56.438Z,2.47
2023-04-25T02:31:27.006Z,2.53
2023-04-25T02:33:55.618Z,2.40
2023-04-25T02:36:24.946Z,2.60
2023-04-25T02:38:53.564Z,2.90
2023-04-25T02:41:22.195Z,3.50
2023-04-25T02:43:51.035Z,3.57
2023-04-25T02:46:32.277Z,3.37
2023-04-25T02:49:08.177Z,3.17
2023-04-25T02:51:36.750Z,2.90
2023-04-25T02:54:05.694Z,2.80
2023-04-25T02:56:34.285Z,2.33
2023-04-25T02:59:04.021Z,3.03
2023-04-25T03:01:32.582Z,2.83
2023-04-25T03:04:01.233Z,3.20
2023-04-25T03:06:31.730Z,3.10
2023-04-25T03:09:00.685Z,2.77
2023-04-25T03:11:29.290Z,2.57
2023-04-25T03:13:57.916Z,3.50
2023-04-25T03:16:26.888Z,3.70
2023-04-25T03:18:55.532Z,2.70
2023-04-25T03:21:24.122Z,2.53
2023-04-25T03:23:54.104Z,2.87
2023-04-25T03:26:22.704Z,3.40
2023-04-25T03:28:51.279Z,2.70
2023-04-25T03:31:20.160Z,2.73
2023-04-25T03:33:49.081Z,3.03
2023-04-25T03:36:17.846Z,3.37
2023-04-25T03:38:46.406Z,4.00
2023-04-25T03:41:16.325Z,3.20
2023-04-25T03:43:44.935Z,3.40
2023-04-25T03:46:13.536Z,3.13
2023-04-25T03:48:42.144Z,3.07
2023-04-25T03:51:10.677Z,2.87
2023-04-25T03:53:39.406Z,2.87
2023-04-25T03:56:08.581Z,3.23
2023-04-25T03:58:38.542Z,3.00
2023-04-25T04:01:08.826Z,3.47
2023-04-25T04:03:38.741Z,3.60
2023-04-25T04:06:08.186Z,3.57
2023-04-25T04:08:36.773Z,2.87
2023-04-25T04:11:05.361Z,3.57
2023-04-25T04:13:33.962Z,3.50
2023-04-25T04:16:05.311Z,4.10
2023-04-25T04:18:34.891Z,3.00
2023-04-25T04:21:03.522Z,3.47
2023-04-25T04:23:32.137Z,3.83
2023-04-25T04:26:00.777Z,3.67
2023-04-25T04:28:29.656Z,2.90
2023-04-25T04:30:58.791Z,3.77
2023-04-25T04:33:29.099Z,3.33
2023-04-25T04:35:57.794Z,3.00
2023-04-25T04:38:26.449Z,3.70
2023-04-25T04:40:55.090Z,3.70
2023-04-25T04:43:23.961Z,3.40
2023-04-25T04:45:53.310Z,3.00
2023-04-25T04:48:22.261Z,3.80
2023-04-25T04:50:52.257Z,3.43
2023-04-25T04:53:20.936Z,3.73
2023-04-25T04:55:49.555Z,3.87
2023-04-25T04:58:19.199Z,3.80
2023-04-25T05:00:48.661Z,4.00
2023-04-25T05:03:17.569Z,4.00
2023-04-25T05:05:46.900Z,4.50
2023-04-25T05:08:16.862Z,3.50
2023-04-25T05:10:45.415Z,3.30
2023-04-25T05:13:15.062Z,4.30
2023-04-25T05:15:44.829Z,3.40
2023-04-25T05:18:13.464Z,3.93
2023-04-25T05:20:42.144Z,3.90
2023-04-25T05:23:10.791Z,3.57
2023-04-25T05:25:40.826Z,3.77
2023-04-25T05:28:09.545Z,4.00
2023-04-25T05:30:38.212Z,3.73
2023-04-25T05:33:06.911Z,4.70
2023-04-25T05:35:35.691Z,4.20
2023-04-25T05:38:04.256Z,4.37
2023-04-25T05:40:32.867Z,3.60
2023-04-25T05:43:03.916Z,4.20
2023-04-25T05:45:32.538Z,3.03
2023-04-25T05:48:01.260Z,3.77
2023-04-25T05:50:29.923Z,3.17
2023-04-25T05:52:58.548Z,4.60
2023-04-25T05:55:28.715Z,3.97
2023-04-25T05:57:59.246Z,3.40
2023-04-25T06:00:29.703Z,3.40
2023-04-25T06:02:58.466Z,3.87
2023-04-25T06:05:27.340Z,4.20
2023-04-25T06:07:56.064Z,4.63
2023-04-25T06:10:24.761Z,4.03
2023-04-25T06:12:53.335Z,3.80
2023-04-25T06:15:27.956Z,4.03
2023-04-25T06:17:59.010Z,4.50
2023-04-25T06:20:27.631Z,5.07
2023-04-25T06:22:56.181Z,4.23
2023-04-25T06:25:24.836Z,5.00
2023-04-25T06:27:53.436Z,4.57
2023-04-25T06:30:24.522Z,4.53
2023-04-25T06:32:53.966Z,4.80
2023-04-25T06:35:24.052Z,4.80
2023-04-25T06:37:52.595Z,4.07
2023-04-25T06:40:21.255Z,4.10
2023-04-25T06:42:50.120Z,4.40
2023-04-25T06:45:18.702Z,5.00
2023-04-25T06:47:47.267Z,4.53
2023-04-25T06:50:16.885Z,4.33
2023-04-25T06:52:47.033Z,3.63
2023-04-25T06:55:15.645Z,4.03
2023-04-25T06:57:44.208Z,3.80
2023-04-25T07:00:13.846Z,4.20
2023-04-25T07:02:44.533Z,5.13
2023-04-25T07:05:13.274Z,4.93
2023-04-25T07:07:41.857Z,3.83
2023-04-25T07:10:12.073Z,4.43
2023-04-25T07:12:40.712Z,4.20
2023-04-25T07:15:11.074Z,3.90
2023-04-25T07:17:39.731Z,4.60
2023-04-25T07:20:10.281Z,4.27
2023-04-25T07:22:38.864Z,3.80
2023-04-25T07:25:09.465Z,4.40
2023-04-25T07:27:41.800Z,4.00
2023-04-25T07:30:11.214Z,5.33
2023-04-25T07:32:39.856Z,3.83
2023-04-25T07:35:09.465Z,4.27
2023-04-25T07:37:38.148Z,4.00
2023-04-25T07:40:10.009Z,4.30
2023-04-25T07:42:40.628Z,3.53
2023-04-25T07:45:10.669Z,2.97
2023-04-25T07:47:39.450Z,3.80
2023-04-25T07:50:09.044Z,3.53
2023-04-25T07:52:37.582Z,3.40
2023-04-25T07:55:06.883Z,3.37
2023-04-25T07:57:35.494Z,2.80
2023-04-25T08:00:10.031Z,3.70
2023-04-25T08:02:39.259Z,4.10
2023-04-25T08:05:13.028Z,3.40
2023-04-25T08:07:42.388Z,4.27
2023-04-25T08:10:11.355Z,4.13
2023-04-25T08:12:40.829Z,3.37
2023-04-25T08:15:11.818Z,4.07
2023-04-25T08:17:41.319Z,3.20
2023-04-25T08:20:11.125Z,4.77
2023-04-25T08:22:39.752Z,3.70
2023-04-25T08:25:08.824Z,3.57
2023-04-25T08:27:37.366Z,3.47
2023-04-25T08:30:06.750Z,3.97
2023-04-25T08:32:38.946Z,3.80
2023-04-25T08:35:08.174Z,3.70
2023-04-25T08:37:37.424Z,3.97
2023-04-25T08:40:08.161Z,3.50
2023-04-25T08:42:36.964Z,3.80
2023-04-25T08:45:07.230Z,4.23
2023-04-25T08:47:37.456Z,3.80
2023-04-25T08:50:07.495Z,3.47
2023-04-25T08:52:39.196Z,3.77
2023-04-25T08:55:09.442Z,4.00
2023-04-25T08:57:38.023Z,4.43
2023-04-25T09:00:09.025Z,5.20
2023-04-25T09:02:39.095Z,2.90
2023-04-25T09:05:10.709Z,3.17
2023-04-25T09:07:39.338Z,3.47
2023-04-25T09:10:08.351Z,2.70
2023-04-25T09:12:37.014Z,2.90
2023-04-25T09:15:07.684Z,3.30
2023-04-25T09:17:41.132Z,2.30
2023-04-25T09:20:13.533Z,2.47
2023-04-25T09:22:43.798Z,2.60
2023-04-25T09:25:13.132Z,2.70
2023-04-25T09:27:53.053Z,2.30
2023-04-25T09:30:30.410Z,2.57
2023-04-25T09:32:59.707Z,3.10
2023-04-25T09:35:29.958Z,2.63
2023-04-25T09:37:58.623Z,2.43
2023-04-25T09:40:27.898Z,2.83
2023-04-25T09:42:56.514Z,2.73
2023-04-25T09:45:25.122Z,2.67
2023-04-25T09:47:58.864Z,2.50
2023-04-25T09:50:28.876Z,2.80
2023-04-25T09:53:05.844Z,2.37
2023-04-25T09:55:34.938Z,2.30
2023-04-25T09:58:06.064Z,3.37
2023-04-25T10:00:35.440Z,2.30
2023-04-25T10:03:05.761Z,3.50
2023-04-25T10:05:36.711Z,3.43
2023-04-25T10:08:06.116Z,3.37
2023-04-25T10:10:37.203Z,2.23
2023-04-25T10:13:07.301Z,3.13
2023-04-25T10:15:39.673Z,2.80
2023-04-25T10:18:08.902Z,2.70
2023-04-25T10:20:38.988Z,2.60
2023-04-25T10:23:12.064Z,2.57
2023-04-25T10:25:41.388Z,2.37
2023-04-25T10:28:09.982Z,3.43
2023-04-25T10:30:38.883Z,3.30
2023-04-25T10:33:18.919Z,2.37
2023-04-25T10:35:51.249Z,2.77
2023-04-25T10:38:19.840Z,2.30
2023-04-25T10:41:04.612Z,2.40
2023-04-25T10:43:39.239Z,2.83
2023-04-25T10:46:17.766Z,3.13
2023-04-25T10:48:50.499Z,2.20
2023-04-25T10:51:22.082Z,2.20
2023-04-25T10:54:00.193Z,2.00
2023-04-25T10:56:29.418Z,2.20
2023-04-25T10:59:11.215Z,2.03
2023-04-25T11:01:41.545Z,1.90
2023-04-25T11:04:22.426Z,2.10
2023-04-25T11:07:06.968Z,2.20
2023-04-25T11:09:36.385Z,2.03
2023-04-25T11:12:05.928Z,3.20
2023-04-25T11:14:34.457Z,3.80
2023-04-25T11:17:03.577Z,2.50
2023-04-25T11:19:32.330Z,2.23
2023-04-25T11:22:02.881Z,2.40
2023-04-25T11:24:31.910Z,2.50
2023-04-25T11:27:01.086Z,2.30
2023-04-25T11:29:29.701Z,2.40
2023-04-25T11:31:58.974Z,1.67
2023-04-25T11:34:27.992Z,2.20
2023-04-25T11:36:56.547Z,1.53
2023-04-25T11:39:26.787Z,1.80
2023-04-25T11:41:55.577Z,2.07
2023-04-25T11:44:24.297Z,2.90
2023-04-25T11:46:52.917Z,2.17
2023-04-25T11:49:23.000Z,2.50
2023-04-25T11:51:51.630Z,2.30
2023-04-25T11:54:20.719Z,2.30
2023-04-25T11:56:50.671Z,1.93
2023-04-25T11:59:19.240Z,1.90
2023-04-25T12:01:51.249Z,2.03
2023-04-25T12:04:20.942Z,2.67
2023-04-25T12:06:50.843Z,2.50
2023-04-25T12:09:22.314Z,1.70
2023-04-25T12:11:56.915Z,1.60
2023-04-25T12:14:28.058Z,1.67
2023-04-25T12:16:58.648Z,2.43
2023-04-25T12:19:27.849Z,2.73
2023-04-25T12:21:58.604Z,1.50
2023-04-25T12:24:28.939Z,1.80
2023-04-25T12:27:03.892Z,1.73
2023-04-25T12:29:42.007Z,1.97
2023-04-25T12:32:16.911Z,2.50
2023-04-25T12:34:45.879Z,1.77
2023-04-25T12:37:14.549Z,1.30
2023-04-25T12:39:43.172Z,2.50
2023-04-25T12:42:13.828Z,2.17
2023-04-25T12:44:42.674Z,2.07
2023-04-25T12:47:11.581Z,2.47
2023-04-25T12:49:40.183Z,2.30
2023-04-25T12:52:08.773Z,1.50
2023-04-25T12:54:37.573Z,2.20
2023-04-25T12:57:06.207Z,1.60
2023-04-25T12:59:36.215Z,1.70
2023-04-25T13:02:05.743Z,2.00
2023-04-25T13:04:34.475Z,1.93
2023-04-25T13:07:03.102Z,1.67
2023-04-25T13:09:31.745Z,1.40
2023-04-25T13:12:00.404Z,2.50
2023-04-25T13:14:28.955Z,1.80
2023-04-25T13:16:59.019Z,2.30
2023-04-25T13:19:27.736Z,1.70
2023-04-25T13:21:56.385Z,1.80
2023-04-25T13:24:25.058Z,2.10
2023-04-25T13:26:53.687Z,1.50
2023-04-25T13:29:22.253Z,1.70
2023-04-25T13:31:50.833Z,1.57
2023-04-25T13:34:20.881Z,1.70
2023-04-25T13:36:49.494Z,1.80
2023-04-25T13:39:18.266Z,1.57
2023-04-25T13:41:46.834Z,1.40
2023-04-25T13:44:15.393Z,1.20
2023-04-25T13:46:47.500Z,1.57
2023-04-25T13:49:16.501Z,2.70
2023-04-25T13:51:46.455Z,2.10
2023-04-25T13:54:15.150Z,1.33
2023-04-25T13:56:43.968Z,1.90
2023-04-25T13:59:12.895Z,1.87
2023-04-25T14:01:41.518Z,2.90
2023-04-25T14:04:10.190Z,8.90
2023-04-25T14:06:38.767Z,1.60
2023-04-25T14:09:11.235Z,1.30
2023-04-25T14:11:39.830Z,1.50
2023-04-25T14:14:08.461Z,1.73
2023-04-25T14:16:37.086Z,1.70
2023-04-25T14:19:05.725Z,2.30
2023-04-25T14:21:34.432Z,1.40
2023-04-25T14:24:03.054Z,2.33
2023-04-25T14:26:32.993Z,2.10
2023-04-25T14:29:01.612Z,1.53
2023-04-25T14:31:30.276Z,1.70
2023-04-25T14:33:59.743Z,1.90
2023-04-25T14:36:28.497Z,1.63
2023-04-25T14:38:57.122Z,1.93
2023-04-25T14:41:25.899Z,1.77
2023-04-25T14:43:57.821Z,1.77
2023-04-25T14:46:26.616Z,1.37
2023-04-25T14:48:56.804Z,1.47
2023-04-25T14:51:25.514Z,2.17
2023-04-25T14:53:54.286Z,0.90
2023-04-25T14:56:23.062Z,1.13
2023-04-25T14:58:52.161Z,1.53
2023-04-25T15:01:22.858Z,1.23
2023-04-25T15:03:52.453Z,1.50
2023-04-25T15:06:21.352Z,1.63
2023-04-25T15:08:49.920Z,1.50
2023-04-25T15:11:19.049Z,1.57
2023-04-25T15:13:47.685Z,2.40
2023-04-25T15:16:16.291Z,2.03
2023-04-25T15:18:46.310Z,1.53
2023-04-25T15:21:15.111Z,1.50
2023-04-25T15:23:43.804Z,2.03
2023-04-25T15:26:12.828Z,1.27
2023-04-25T15:28:42.261Z,1.93
2023-04-25T15:31:10.864Z,2.23
2023-04-25T15:33:39.462Z,1.40
2023-04-25T15:36:11.328Z,1.80
2023-04-25T15:38:39.980Z,1.83
2023-04-25T15:41:08.567Z,1.47
2023-04-25T15:43:38.734Z,1.97
2023-04-25T15:46:07.736Z,1.38
2023-04-25T15:48:36.344Z,1.30
2023-04-25T15:51:04.994Z,0.90
2023-04-25T15:53:34.979Z,1.23
2023-04-25T15:56:04.593Z,1.10
2023-04-25T15:58:33.176Z,1.70
2023-04-25T16:01:02.508Z,1.33
2023-04-25T16:03:33.704Z,2.20
2023-04-25T16:06:04.857Z,1.40
2023-04-25T16:08:35.866Z,1.33
2023-04-25T16:11:05.356Z,1.40
2023-04-25T16:13:35.286Z,1.63
2023-04-25T16:16:03.960Z,1.10
2023-04-25T16:18:32.520Z,1.97
2023-04-25T16:21:01.392Z,1.10
2023-04-25T16:23:30.000Z,1.60
2023-04-25T16:25:59.949Z,1.60
2023-04-25T16:28:28.538Z,1.20
2023-04-25T16:30:57.216Z,1.40
2023-04-25T16:33:26.139Z,1.30
2023-04-25T16:35:54.758Z,1.47
2023-04-25T16:38:23.810Z,0.90
2023-04-25T16:40:52.436Z,1.07
2023-04-25T16:43:22.428Z,1.40
2023-04-25T16:45:51.081Z,0.97
2023-04-25T16:48:20.860Z,1.20
2023-04-25T16:50:49.486Z,1.07
2023-04-25T16:53:18.146Z,1.33
2023-04-25T16:55:47.394Z,1.20
2023-04-25T16:58:16.014Z,1.23
2023-04-25T17:00:46.771Z,0.90
2023-04-25T17:03:15.462Z,1.07
2023-04-25T17:05:44.115Z,1.50
2023-04-25T17:08:12.661Z,0.93
2023-04-25T17:10:41.694Z,1.23
2023-04-25T17:13:10.844Z,1.70
2023-04-25T17:15:39.501Z,1.37
2023-04-25T17:18:09.780Z,1.23
2023-04-25T17:20:38.369Z,1.27
2023-04-25T17:23:07.121Z,1.00
2023-04-25T17:25:35.893Z,1.17
2023-04-25T17:28:04.666Z,1.50
2023-04-25T17:30:34.404Z,1.00
2023-04-25T17:33:03.455Z,1.33
2023-04-25T17:35:33.999Z,1.27
2023-04-25T17:38:02.673Z,1.00
2023-04-25T17:40:31.583Z,0.90
2023-04-25T17:43:00.179Z,1.10
2023-04-25T17:45:34.403Z,1.10
2023-04-25T17:48:03.700Z,0.90
2023-04-25T17:50:33.755Z,1.70
2023-04-25T17:53:03.589Z,0.80
2023-04-25T17:55:32.145Z,1.13
2023-04-25T17:58:00.758Z,1.30
2023-04-25T18:00:30.162Z,0.90
2023-04-25T18:02:58.866Z,1.20
2023-04-25T18:05:29.249Z,1.70
2023-04-25T18:08:02.098Z,1.73
2023-04-25T18:10:31.123Z,1.00
2023-04-25T18:12:59.724Z,1.27
2023-04-25T18:15:28.706Z,1.40
2023-04-25T18:17:58.196Z,1.20
2023-04-25T18:20:28.553Z,1.30
2023-04-25T18:22:57.472Z,1.30
2023-04-25T18:25:27.535Z,1.27
2023-04-25T18:27:56.239Z,1.13
2023-04-25T18:30:24.830Z,1.30
2023-04-25T18:32:53.438Z,1.47
2023-04-25T18:35:22.557Z,1.93
2023-04-25T18:37:51.169Z,2.20
2023-04-25T18:40:19.852Z,2.00
2023-04-25T18:42:49.994Z,1.50
2023-04-25T18:45:18.733Z,1.60
2023-04-25T18:47:47.965Z,1.40
2023-04-25T18:50:20.385Z,1.23
2023-04-25T18:52:48.999Z,1.43
2023-04-25T18:55:17.671Z,1.20
2023-04-25T18:57:46.325Z,2.33
2023-04-25T19:00:17.432Z,2.13
2023-04-25T19:02:46.100Z,1.73
2023-04-25T19:05:14.761Z,1.83
2023-04-25T19:07:45.003Z,2.50
2023-04-25T19:10:13.993Z,3.07
2023-04-25T19:12:42.554Z,2.60
2023-04-25T19:15:11.893Z,1.30
2023-04-25T19:17:42.174Z,1.60
2023-04-25T19:20:11.333Z,1.30
2023-04-25T19:22:39.923Z,1.63
2023-04-25T19:25:10.925Z,1.20
2023-04-25T19:27:39.895Z,1.50
2023-04-25T19:30:10.099Z,1.37
2023-04-25T19:32:39.045Z,1.93
2023-04-25T19:35:11.955Z,1.90
2023-04-25T19:37:46.174Z,1.40
2023-04-25T19:40:17.639Z,1.60
2023-04-25T19:42:46.387Z,2.00
2023-04-25T19:45:14.975Z,1.30
2023-04-25T19:47:43.856Z,1.37
2023-04-25T19:50:13.967Z,1.40
2023-04-25T19:52:42.739Z,1.20
2023-04-25T19:55:11.864Z,1.13
2023-04-25T19:57:40.916Z,1.40
2023-04-25T20:00:11.953Z,1.60
2023-04-25T20:02:40.960Z,1.30
2023-04-25T20:05:10.329Z,1.50
2023-04-25T20:07:40.351Z,0.90
2023-04-25T20:10:10.517Z,1.30
2023-04-25T20:12:40.214Z,1.73
2023-04-25T20:15:09.888Z,1.17
2023-04-25T20:17:39.121Z,1.20
2023-04-25T20:20:09.982Z,1.97
2023-04-25T20:22:40.747Z,1.47
2023-04-25T20:25:10.808Z,1.50
2023-04-25T20:27:39.483Z,2.40
2023-04-25T20:30:09.049Z,1.73
2023-04-25T20:32:37.975Z,1.33
2023-04-25T20:35:08.641Z,1.33
2023-04-25T20:37:37.537Z,2.50
2023-04-25T20:40:08.924Z,1.47
2023-04-25T20:42:38.138Z,1.77
2023-04-25T20:45:12.912Z,1.50
2023-04-25T20:47:42.652Z,1.20
2023-04-25T20:50:12.119Z,1.40
2023-04-25T20:52:41.641Z,1.43
2023-04-25T20:55:12.231Z,1.83
2023-04-25T20:57:40.878Z,1.00
2023-04-25T21:00:16.697Z,1.50
2023-04-25T21:02:45.689Z,1.90
2023-04-25T21:05:14.479Z,1.57
2023-04-25T21:07:43.057Z,1.83
2023-04-25T21:10:14.432Z,1.40
2023-04-25T21:12:44.112Z,1.00
2023-04-25T21:15:14.476Z,1.27
2023-04-25T21:17:43.234Z,1.20
2023-04-25T21:20:12.405Z,1.63
2023-04-25T21:22:47.793Z,1.40
2023-04-25T21:25:20.885Z,1.77
2023-04-25T21:27:49.869Z,1.50
2023-04-25T21:30:23.128Z,1.60
2023-04-25T21:32:52.376Z,1.53
2023-04-25T21:35:21.357Z,1.57
2023-04-25T21:37:50.049Z,1.50
2023-04-25T21:40:20.062Z,1.30
2023-04-25T21:42:51.368Z,1.80
2023-04-25T21:45:20.411Z,1.10
2023-04-25T21:47:49.102Z,1.83
2023-04-25T21:50:17.995Z,1.60
2023-04-25T21:52:46.909Z,1.50
2023-04-25T21:55:15.508Z,1.80
2023-04-25T21:57:46.343Z,1.13
2023-04-25T22:00:24.319Z,1.30
2023-04-25T22:02:53.611Z,1.30
2023-04-25T22:05:22.680Z,0.97
2023-04-25T22:07:51.707Z,1.63
2023-04-25T22:10:20.661Z,1.70
2023-04-25T22:12:51.070Z,1.17
2023-04-25T22:15:21.456Z,1.30
2023-04-25T22:17:50.922Z,1.10
2023-04-25T22:20:22.667Z,1.30
2023-04-25T22:22:51.271Z,1.23
2023-04-25T22:25:21.177Z,1.50
2023-04-25T22:27:51.442Z,1.60
2023-04-25T22:30:20.110Z,1.53
2023-04-25T22:32:48.754Z,1.17
2023-04-25T22:35:17.363Z,1.73
2023-04-25T22:37:46.061Z,1.50
2023-04-25T22:40:15.565Z,1.80
2023-04-25T22:42:44.586Z,1.70
2023-04-25T22:45:14.823Z,1.23
2023-04-25T22:47:43.727Z,1.13
2023-04-25T22:50:16.551Z,1.10
2023-04-25T22:52:45.561Z,1.20
2023-04-25T22:55:14.181Z,0.90
2023-04-25T22:57:43.139Z,1.10
2023-04-25T23:00:19.640Z,1.40
2023-04-25T23:02:48.623Z,1.97
2023-04-25T23:05:17.716Z,1.20
2023-04-25T23:07:46.320Z,1.20
2023-04-25T23:10:14.924Z,1.17
2023-04-25T23:12:43.945Z,1.70
2023-04-25T23:15:14.665Z,1.33
2023-04-25T23:17:43.465Z,1.37
2023-04-25T23:20:13.335Z,1.40
2023-04-25T23:22:42.080Z,1.50
2023-04-25T23:25:11.832Z,1.70
2023-04-25T23:27:40.466Z,2.37
2023-04-25T23:30:10.318Z,1.37
2023-04-25T23:32:40.513Z,1.43
2023-04-25T23:35:10.037Z,1.93
2023-04-25T23:37:38.851Z,1.27
2023-04-25T23:40:09.795Z,1.63
2023-04-25T23:42:38.577Z,1.70
2023-04-25T23:45:08.379Z,1.40
2023-04-25T23:47:37.553Z,2.00
2023-04-25T23:50:08.985Z,1.20
2023-04-25T23:52:37.909Z,1.57
2023-04-25T23:55:07.350Z,1.40
2023-04-25T23:57:36.259Z,1.50
